Portada
METAR-TAF:

METAR-TAF

Aeroports :

Armilla

Granada, Espanya

latitud: 37-08N, longitud: 003-38-08W, altitud: 700 m

Observació

L'informe es va fer fa 26 minuts, a les 13:00 UTC
Vent 12 kt del Sud, variant entre Sud/Sud-Est i Sud-Oest
Temperatura 16°C
Humitat 45%
Pressió 1010 hPa
Visibilitat 10 km o més
Escasses núvols a una alçada de 4000 ft

METAR: LEGA 301300Z 19012KT 160V220 9999 FEW040 16/04 Q1010

Hora: 15:26 (13:26 UTC)

Pronòstic

L'informe es va fer fa 2 hores i 26 minuts, a les 11:00 UTC
Pronòstic vàlid del 30 a les 12 UTC al 30 a les 21 UTC
Vent 7 kt del Sud
Visibilitat 10 km o més
Escasses núvols a una alçada de 4000 ft
Núvols disperses a una alçada de 7000 ft

TAF: LEGA 301100Z 3012/3021 18007KT 9999 FEW040 SCT070

Observacions i pronòstics meteorològics de més de 4000 aeroports (METAR i TAF).

Les estacions disponibles són els punts grocs i vermells al mapa.

Posi el ratolí al punt desitjat per veure el nom de l'estació.

Feu clic per veure les observacions i els pronòstics meteorològics.

Per canviar el mapa: feu clic els botons verds amb una creu de color negre per apropar; al botó verd amb un guió per allunyar la imatge; o en les fletxes verdes per a mapes adjacents.


METAR-TAF: